Terminal Aerodrome Forecast
Issued by NWS

Home | Current Version | Previous Version | Graphics & Text | Print | Product List | Glossary On
Versions: 1 2 3 4 5 6 7 8 9 10 11 12 13 14 15 16 17 18 19 20
000
FTUS43 KICT 302300
TAFSLN
TAF
KSLN 302332Z 0100/0124 17012KT P6SM VCTS BKN060CB
      TEMPO 0100/0102 VRB15G30KT 5SM TSRA FEW025 BKN050CB
     FM011000 17009KT P6SM BKN060
     FM011500 18011KT P6SM SCT060
     FM012200 17010KT P6SM VCTS BKN060CB=

USA.gov is the U.S. government's official web portal to all federal, state and local government web resources and services.